Time;durP1;ratioP1;P1;durP2;ratioP2;P2;SDS_P1;SDS_P2;PMS_P1;PMS_P2;Temp;Humidity;BMP_temperature;BMP_pressure;BME280_temperature;BME280_humidity;BME280_pressure;Samples;Min_cycle;Max_cycle;Signal;HPM_P1;HPM_P2
2022/07/18 00:02:03;;;;;;;10.00;4.13;;;;;;;14.17;78.95;102424.19;6156405;23;20024;-74
2022/07/18 00:04:29;;;;;;;11.57;4.75;;;;;;;14.17;79.28;102432.81;6156337;23;20014;-78
2022/07/18 00:06:55;;;;;;;10.88;4.70;;;;;;;14.12;79.37;102431.38;6156123;23;20013;-77
2022/07/18 00:09:22;;;;;;;10.52;5.15;;;;;;;14.11;79.47;102429.69;6156387;23;20077;-78
2022/07/18 00:11:47;;;;;;;10.98;4.82;;;;;;;14.11;79.34;102420.13;6156412;23;20081;-75
2022/07/18 00:14:13;;;;;;;9.50;4.68;;;;;;;14.07;80.29;102421.22;6156350;23;20423;-78
2022/07/18 00:16:38;;;;;;;18.05;6.03;;;;;;;13.98;80.39;102424.31;6156092;23;20006;-73
2022/07/18 00:19:04;;;;;;;13.50;5.18;;;;;;;13.90;80.33;102409.13;6156404;23;19997;-72
2022/07/18 00:21:29;;;;;;;9.25;4.60;;;;;;;13.91;80.48;102404.75;6156395;23;20002;-73
2022/07/18 00:23:55;;;;;;;8.20;4.82;;;;;;;13.93;80.74;102410.69;6155992;23;20438;-72
2022/07/18 00:26:20;;;;;;;11.65;5.50;;;;;;;13.83;80.74;102397.34;6156014;23;20072;-72
2022/07/18 00:28:45;;;;;;;9.93;4.88;;;;;;;13.76;81.13;102395.97;6155613;23;20025;-71
2022/07/18 00:31:11;;;;;;;11.98;5.13;;;;;;;13.84;81.33;102404.22;6129923;23;20016;-70
2022/07/18 00:33:36;;;;;;;10.48;4.63;;;;;;;13.67;81.09;102386.94;6156117;23;20012;-71
2022/07/18 00:36:02;;;;;;;9.98;4.53;;;;;;;13.78;81.52;102404.56;6156093;23;20012;-74
2022/07/18 00:38:27;;;;;;;10.65;5.65;;;;;;;13.77;81.54;102403.72;6156014;23;20075;-75
2022/07/18 00:40:52;;;;;;;10.40;4.95;;;;;;;13.76;81.60;102398.56;6129195;23;20005;-71
2022/07/18 00:43:18;;;;;;;13.13;5.07;;;;;;;13.72;81.29;102403.09;6156093;23;20029;-70
2022/07/18 00:45:45;;;;;;;9.45;4.28;;;;;;;13.70;81.56;102396.31;6129420;23;20103;-79
2022/07/18 00:48:11;;;;;;;11.27;5.18;;;;;;;13.60;81.81;102382.97;6156163;23;20006;-71
2022/07/18 00:50:37;;;;;;;9.60;5.47;;;;;;;13.65;82.08;102391.34;6156155;23;20487;-79
2022/07/18 00:53:02;;;;;;;8.95;5.20;;;;;;;13.61;81.64;102387.25;6156135;23;20006;-74
2022/07/18 00:55:27;;;;;;;10.43;5.38;;;;;;;13.60;81.76;102397.69;6156127;23;20005;-78
2022/07/18 00:57:55;;;;;;;12.68;5.28;;;;;;;13.55;82.11;102394.47;6155896;23;20001;-70
2022/07/18 01:03:05;;;;;;;12.63;5.25;;;;;;;13.48;82.23;102388.78;6155671;23;20036;-70
2022/07/18 01:05:30;;;;;;;11.38;5.70;;;;;;;13.30;82.47;102364.59;6155601;23;20010;-80
2022/07/18 01:07:56;;;;;;;11.10;5.47;;;;;;;13.35;82.70;102364.34;6155981;23;20048;-70
2022/07/18 01:10:21;;;;;;;10.82;5.97;;;;;;;13.38;82.52;102372.84;6155464;23;20015;-77
2022/07/18 01:12:46;;;;;;;10.50;5.32;;;;;;;13.40;82.66;102376.19;6155263;23;20069;-80
2022/07/18 01:15:12;;;;;;;10.98;6.03;;;;;;;13.30;82.94;102366.34;6155263;23;20040;-70
2022/07/18 01:17:38;;;;;;;10.35;5.75;;;;;;;13.30;83.00;102374.13;6155514;23;20040;-70
2022/07/18 01:20:05;;;;;;;11.10;5.50;;;;;;;13.34;82.96;102376.47;6155914;23;20008;-70
2022/07/18 01:22:30;;;;;;;10.55;5.10;;;;;;;13.29;82.87;102370.69;6155474;23;20332;-70
2022/07/18 01:24:55;;;;;;;13.55;6.25;;;;;;;13.28;82.58;102379.41;6155274;23;20012;-70
2022/07/18 01:27:22;;;;;;;11.18;6.20;;;;;;;13.26;82.90;102372.59;6155547;23;19997;-71
2022/07/18 01:29:49;;;;;;;13.43;6.18;;;;;;;13.19;82.97;102375.50;6155520;23;20005;-70
2022/07/18 01:32:15;;;;;;;10.70;5.82;;;;;;;12.94;82.86;102336.06;6155491;23;20072;-70
2022/07/18 01:34:41;;;;;;;13.43;6.28;;;;;;;13.23;82.50;102378.78;6155594;23;20431;-70
2022/07/18 01:37:07;;;;;;;11.43;6.57;;;;;;;13.09;82.92;102360.44;6155212;23;20323;-70
2022/07/18 01:39:33;;;;;;;11.07;6.60;;;;;;;13.18;82.89;102370.34;6155650;23;20005;-71
2022/07/18 01:42:01;;;;;;;10.00;5.55;;;;;;;13.15;82.78;102375.69;6155341;23;20009;-71
2022/07/18 01:44:27;;;;;;;11.85;6.20;;;;;;;13.10;83.27;102370.72;6155204;23;20013;-70
2022/07/18 01:46:53;;;;;;;11.23;6.30;;;;;;;12.99;83.05;102360.03;6155032;23;20097;-70
2022/07/18 01:49:19;;;;;;;13.32;6.60;;;;;;;13.03;83.23;102382.31;6155610;23;20033;-72
2022/07/18 01:51:49;;;;;;;11.38;6.30;;;;;;;13.02;82.65;102369.41;6155128;23;20319;-70
2022/07/18 01:54:15;;;;;;;13.45;6.57;;;;;;;13.03;82.68;102365.91;6152967;23;20012;-70
2022/07/18 01:56:41;;;;;;;15.25;7.35;;;;;;;13.02;82.83;102372.00;6155280;23;20080;-70
2022/07/18 01:59:06;;;;;;;12.85;7.22;;;;;;;12.97;83.19;102372.22;6155380;23;20331;-71
2022/07/18 02:01:32;;;;;;;13.20;6.70;;;;;;;12.88;82.93;102354.50;6155457;23;20074;-70
2022/07/18 02:03:57;;;;;;;12.05;6.07;;;;;;;12.90;83.26;102370.84;6155205;23;20002;-70
2022/07/18 02:06:22;;;;;;;12.98;6.38;;;;;;;12.86;83.26;102364.13;6155322;23;20033;-70
2022/07/18 02:08:48;;;;;;;13.95;7.25;;;;;;;12.85;83.14;102365.88;6155113;23;20001;-71
2022/07/18 02:11:13;;;;;;;14.90;7.20;;;;;;;12.84;83.39;102366.78;6155111;23;20009;-69
2022/07/18 02:13:39;;;;;;;13.32;7.25;;;;;;;12.72;83.38;102345.81;6155038;23;20415;-70
2022/07/18 02:16:05;;;;;;;14.40;7.32;;;;;;;12.76;83.51;102348.16;6155070;23;20001;-70
2022/07/18 02:18:32;;;;;;;13.02;6.78;;;;;;;12.81;83.76;102345.38;6155493;23;20009;-70
2022/07/18 02:20:59;;;;;;;13.77;7.43;;;;;;;12.75;83.86;102343.91;6155118;23;20080;-70
2022/07/18 02:23:24;;;;;;;20.33;7.25;;;;;;;12.76;84.23;102339.56;6154879;23;20494;-71
2022/07/18 02:25:49;;;;;;;12.77;7.05;;;;;;;12.71;83.96;102339.78;6155106;23;20001;-70
2022/07/18 02:28:15;;;;;;;12.75;7.15;;;;;;;12.70;84.22;102340.72;6155115;23;20006;-71
2022/07/18 02:30:40;;;;;;;12.32;6.60;;;;;;;12.62;84.15;102335.03;6155054;23;20001;-70
2022/07/18 02:33:05;;;;;;;14.40;6.85;;;;;;;12.71;84.28;102350.16;6155514;23;20005;-71
2022/07/18 02:35:31;;;;;;;16.13;7.80;;;;;;;12.70;84.01;102351.06;6155403;23;20032;-71
2022/07/18 02:37:56;;;;;;;12.77;6.55;;;;;;;12.68;83.84;102345.09;6155049;23;20017;-71
2022/07/18 02:40:22;;;;;;;14.95;7.25;;;;;;;12.66;83.85;102336.56;6155091;23;20002;-70
2022/07/18 02:42:47;;;;;;;12.85;6.53;;;;;;;12.67;83.97;102340.81;6155305;23;20010;-72
2022/07/18 02:45:13;;;;;;;14.35;6.68;;;;;;;12.64;84.46;102336.63;6155000;23;20013;-71
2022/07/18 02:47:38;;;;;;;12.93;6.90;;;;;;;12.65;84.60;102334.88;6155130;23;20006;-71
2022/07/18 02:50:04;;;;;;;13.45;7.63;;;;;;;12.45;84.18;102311.66;6155279;23;20008;-71
2022/07/18 02:52:29;;;;;;;13.68;7.38;;;;;;;12.51;84.25;102327.78;6155016;23;20339;-70
2022/07/18 02:54:56;;;;;;;14.27;7.28;;;;;;;12.61;84.14;102341.13;6154875;23;20005;-71
2022/07/18 02:57:22;;;;;;;15.15;7.82;;;;;;;12.53;84.30;102335.47;6155901;23;20439;-75
2022/07/18 02:59:47;;;;;;;18.63;7.95;;;;;;;12.55;84.19;102333.63;6155433;23;20009;-71
2022/07/18 03:02:12;;;;;;;13.50;7.03;;;;;;;12.54;84.15;102331.97;6157051;23;20005;-72
2022/07/18 03:04:38;;;;;;;13.00;7.30;;;;;;;12.53;84.41;102332.88;6157104;23;20064;-73
2022/07/18 03:07:03;;;;;;;14.57;7.13;;;;;;;12.48;84.38;102325.31;6156974;23;20320;-71
2022/07/18 03:09:30;;;;;;;13.02;7.45;;;;;;;12.45;84.56;102333.22;6156809;23;20009;-71
2022/07/18 03:11:55;;;;;;;14.25;7.50;;;;;;;12.45;84.68;102329.81;6157231;23;20169;-70
2022/07/18 03:14:21;;;;;;;13.65;8.07;;;;;;;12.37;84.71;102314.63;6156636;23;20057;-71
2022/07/18 03:16:47;;;;;;;17.48;9.07;;;;;;;12.40;84.86;102316.25;6156985;23;20009;-73
2022/07/18 03:19:12;;;;;;;17.63;7.78;;;;;;;12.37;84.86;102318.97;6130514;23;20375;-70
2022/07/18 03:21:37;;;;;;;13.98;8.43;;;;;;;12.35;84.85;102319.88;6156666;23;20009;-71
2022/07/18 03:24:03;;;;;;;15.45;7.90;;;;;;;12.37;85.17;102321.53;6157147;23;20006;-71
2022/07/18 03:26:29;;;;;;;16.33;8.15;;;;;;;12.37;84.99;102313.78;6156570;23;20006;-69
2022/07/18 03:28:54;;;;;;;17.58;8.63;;;;;;;12.37;85.11;102314.63;6156998;23;20001;-70
2022/07/18 03:31:19;;;;;;;16.08;8.65;;;;;;;12.40;84.60;102304.13;6156281;23;20014;-71
2022/07/18 03:33:45;;;;;;;21.02;9.20;;;;;;;12.40;84.83;102308.47;6156455;23;20084;-71
2022/07/18 03:36:10;;;;;;;13.30;8.38;;;;;;;12.37;84.95;102319.78;6156534;23;20002;-71
2022/07/18 03:38:36;;;;;;;17.95;9.10;;;;;;;12.39;84.92;102311.94;6156604;23;20002;-71
2022/07/18 03:41:02;;;;;;;17.95;8.20;;;;;;;12.39;84.54;102311.94;6156412;23;20088;-71
2022/07/18 03:43:28;;;;;;;17.70;8.50;;;;;;;12.37;84.86;102300.81;6156814;23;20052;-73
2022/07/18 03:45:53;;;;;;;14.05;8.25;;;;;;;12.33;85.11;102300.97;6156020;23;20009;-77
2022/07/18 03:48:19;;;;;;;16.83;8.73;;;;;;;12.38;85.08;102315.44;6156353;23;20045;-71
2022/07/18 03:50:44;;;;;;;16.33;8.32;;;;;;;12.39;85.48;102306.75;6156687;23;20025;-71
2022/07/18 03:53:09;;;;;;;18.33;9.55;;;;;;;12.40;85.52;102304.13;6156695;23;20331;-73
2022/07/18 03:55:35;;;;;;;16.42;8.45;;;;;;;12.40;85.40;102305.88;6156860;23;20048;-71
2022/07/18 03:58:00;;;;;;;17.13;8.63;;;;;;;12.41;85.51;102304.97;6156310;23;20412;-72
2022/07/18 04:00:25;;;;;;;16.02;8.75;;;;;;;12.42;85.79;102306.63;6155924;23;20005;-72
2022/07/18 04:02:51;;;;;;;18.17;9.63;;;;;;;12.28;85.73;102271.00;6156488;23;20092;-73
2022/07/18 04:05:17;;;;;;;16.80;9.30;;;;;;;12.36;85.94;102281.84;6156349;23;20005;-72
2022/07/18 04:07:43;;;;;;;20.08;9.70;;;;;;;12.50;85.52;102304.53;6156145;23;20005;-79
2022/07/18 04:10:10;;;;;;;22.83;10.23;;;;;;;12.45;85.33;102285.75;6156521;23;20006;-78
2022/07/18 04:12:45;;;;;;;19.90;9.85;;;;;;;12.60;85.19;102298.00;6156164;23;20064;-80
2022/07/18 04:15:10;;;;;;;16.10;9.57;;;;;;;12.56;85.22;102276.56;6156259;23;20005;-73
2022/07/18 04:17:35;;;;;;;17.13;9.63;;;;;;;12.61;85.30;102266.81;6156196;23;20379;-71
2022/07/18 04:20:02;;;;;;;16.65;9.95;;;;;;;12.81;84.65;102285.75;6156142;23;20012;-74
2022/07/18 04:22:27;;;;;;;18.45;10.10;;;;;;;12.89;84.56;102289.66;6156299;23;20018;-72
2022/07/18 04:24:52;;;;;;;21.65;9.70;;;;;;;12.98;83.79;102290.94;6156205;23;20014;-71
2022/07/18 04:27:18;;;;;;;17.35;9.50;;;;;;;12.98;84.23;102282.28;6156353;23;20032;-78
2022/07/18 04:29:43;;;;;;;19.08;10.73;;;;;;;13.07;83.57;102282.69;6155826;23;20024;-79
2022/07/18 04:32:08;;;;;;;19.23;9.43;;;;;;;13.13;83.53;102278.94;6156181;23;20009;-71
2022/07/18 04:34:33;;;;;;;17.45;9.90;;;;;;;13.17;83.77;102283.91;6156132;23;20060;-80
2022/07/18 04:36:59;;;;;;;17.63;9.10;;;;;;;13.24;83.45;102270.66;6156306;23;20319;-71
2022/07/18 04:39:24;;;;;;;15.52;8.13;;;;;;;13.51;84.03;102266.63;6156020;23;19998;-73
2022/07/18 04:41:49;;;;;;;14.32;8.27;;;;;;;13.71;83.54;102265.59;6155626;23;20013;-73
2022/07/18 04:44:15;;;;;;;13.73;7.32;;;;;;;13.97;83.67;102267.63;6155853;23;20416;-79
2022/07/18 04:46:40;;;;;;;17.17;8.05;;;;;;;13.96;82.40;102258.16;6155613;23;20013;-72
2022/07/18 04:49:05;;;;;;;15.45;8.23;;;;;;;14.10;82.04;102265.19;6156222;23;20002;-80
2022/07/18 04:51:32;;;;;;;17.85;9.10;;;;;;;14.21;81.35;102275.84;6155779;23;20009;-81
2022/07/18 04:53:57;;;;;;;18.15;8.93;;;;;;;14.33;81.29;102271.72;6155824;23;20005;-81
2022/07/18 04:56:22;;;;;;;17.48;9.40;;;;;;;14.39;80.87;102271.38;6155929;23;20301;-75
2022/07/18 04:58:48;;;;;;;15.27;8.40;;;;;;;14.51;80.67;102275.91;6155977;23;20431;-82
2022/07/18 05:01:13;;;;;;;16.00;9.35;;;;;;;14.53;80.63;102260.22;6155433;23;20001;-77
2022/07/18 05:03:39;;;;;;;17.00;8.90;;;;;;;14.71;80.36;102248.78;6156004;23;20016;-75
2022/07/18 05:06:04;;;;;;;21.17;10.27;;;;;;;14.89;79.10;102263.31;6155913;23;20350;-83
2022/07/18 05:08:30;;;;;;;17.75;9.75;;;;;;;15.06;77.24;102272.75;6155537;23;20002;-75
2022/07/18 05:10:55;;;;;;;17.63;9.30;;;;;;;15.19;77.19;102267.66;6155469;23;20002;-85
2022/07/18 05:13:20;;;;;;;17.48;9.80;;;;;;;15.62;73.82;102278.94;6155799;23;20001;-74
2022/07/18 05:15:46;;;;;;;19.75;9.38;;;;;;;16.10;73.36;102276.81;6155383;23;20408;-79
2022/07/18 05:18:11;;;;;;;15.43;8.43;;;;;;;16.50;71.91;102271.66;6155781;23;20069;-84
2022/07/18 05:20:36;;;;;;;16.67;8.88;;;;;;;16.90;70.59;102275.13;6155578;23;20002;-73
2022/07/18 05:23:02;;;;;;;18.23;9.45;;;;;;;17.35;68.08;102271.19;6155414;23;20014;-75
2022/07/18 05:25:27;;;;;;;21.80;8.30;;;;;;;18.05;66.37;102270.66;6155304;23;20008;-78
2022/07/18 05:27:53;;;;;;;20.40;9.60;;;;;;;18.48;64.89;102264.91;6155340;23;20029;-77
2022/07/18 05:30:19;;;;;;;20.35;10.20;;;;;;;19.32;59.52;102276.94;6154833;23;20002;-73
2022/07/18 05:32:45;;;;;;;18.95;10.00;;;;;;;19.83;58.15;102273.84;6144142;23;20044;-73
2022/07/18 05:35:12;;;;;;;18.88;9.65;;;;;;;20.39;56.67;102269.31;6155499;23;20076;-81
2022/07/18 05:37:38;;;;;;;20.55;9.88;;;;;;;20.85;54.26;102265.53;6155321;23;20065;-72
2022/07/18 05:40:05;;;;;;;20.15;9.43;;;;;;;21.62;52.01;102267.72;6155693;23;20097;-80
2022/07/18 05:42:31;;;;;;;24.88;10.45;;;;;;;22.00;50.00;102267.81;6155461;23;20009;-75
2022/07/18 05:44:56;;;;;;;22.83;9.73;;;;;;;22.81;47.72;102257.88;6154831;23;20032;-76
2022/07/18 05:47:22;;;;;;;18.33;9.27;;;;;;;23.57;45.95;102260.38;6154942;23;20002;-77
2022/07/18 05:49:47;;;;;;;18.48;9.32;;;;;;;24.36;45.34;102243.91;6155026;23;20009;-73
2022/07/18 05:52:12;;;;;;;23.60;9.50;;;;;;;25.11;42.77;102270.72;6155376;23;20013;-77
2022/07/18 05:54:38;;;;;;;19.90;8.90;;;;;;;25.89;41.70;102267.91;6155395;23;20056;-80
2022/07/18 05:57:03;;;;;;;18.40;10.07;;;;;;;26.43;39.48;102257.72;6154443;23;20008;-82
2022/07/18 05:59:29;;;;;;;21.70;10.02;;;;;;;27.05;37.82;102271.28;6155548;23;20096;-77
2022/07/18 06:01:54;;;;;;;13.95;8.73;;;;;;;27.55;37.60;102275.38;6155201;23;20431;-81
2022/07/18 06:04:20;;;;;;;21.38;9.52;;;;;;;28.12;35.17;102252.00;6155116;23;20450;-77
2022/07/18 06:06:45;;;;;;;23.67;10.50;;;;;;;28.68;35.19;102271.13;6155099;23;20006;-74
2022/07/18 06:09:12;;;;;;;16.73;9.25;;;;;;;29.27;33.76;102276.50;6155231;23;20016;-88
2022/07/18 06:11:38;;;;;;;18.23;8.38;;;;;;;29.64;33.51;102267.56;6155363;23;20001;-86
2022/07/18 06:14:03;;;;;;;22.67;8.88;;;;;;;29.90;32.07;102236.91;6155142;23;20052;-85
2022/07/18 06:16:30;;;;;;;15.10;8.85;;;;;;;30.04;31.99;102253.84;6154804;23;20016;-89
2022/07/18 06:18:56;;;;;;;14.18;7.78;;;;;;;30.44;31.46;102255.03;6155133;23;20051;-87
2022/07/18 06:21:21;;;;;;;18.60;9.07;;;;;;;30.74;30.72;102255.69;6154899;23;20108;-87
2022/07/18 06:23:47;;;;;;;19.27;7.68;;;;;;;30.61;31.07;102247.56;6155439;23;20400;-76
2022/07/18 06:26:12;;;;;;;18.92;9.25;;;;;;;30.71;30.14;102248.09;6155299;23;20269;-83
2022/07/18 06:28:37;;;;;;;18.65;8.55;;;;;;;30.91;30.30;102250.88;6155230;23;20006;-86
2022/07/18 06:31:03;;;;;;;16.25;9.43;;;;;;;30.94;30.11;102242.47;6155472;23;20013;-86
2022/07/18 06:33:28;;;;;;;18.77;8.93;;;;;;;31.11;30.18;102211.75;6157468;23;20085;-81
2022/07/18 06:35:54;;;;;;;20.38;9.38;;;;;;;31.39;29.08;102233.06;6157177;23;20033;-88
2022/07/18 06:38:19;;;;;;;17.40;9.82;;;;;;;31.63;28.40;102237.00;6156983;23;20428;-89
2022/07/18 06:40:44;;;;;;;20.63;8.75;;;;;;;31.65;28.58;102209.06;6157081;23;20010;-86
2022/07/18 06:43:10;;;;;;;17.48;8.85;;;;;;;31.69;28.92;102225.53;6156995;23;20037;-83
2022/07/18 06:45:36;;;;;;;19.98;9.18;;;;;;;32.01;28.41;102231.13;6157063;23;20017;-86
2022/07/18 06:48:01;;;;;;;17.17;10.13;;;;;;;31.54;28.37;102214.19;6156635;23;20415;-82
2022/07/18 06:50:27;;;;;;;17.95;9.18;;;;;;;31.12;29.74;102229.41;6157172;23;20057;-85
2022/07/18 06:52:53;;;;;;;20.67;9.77;;;;;;;30.52;30.13;102226.38;6156931;23;20010;-84
2022/07/18 06:55:19;;;;;;;18.05;9.80;;;;;;;31.04;29.83;102226.91;6157241;23;20001;-78
2022/07/18 06:57:45;;;;;;;19.83;9.48;;;;;;;31.49;28.86;102227.34;6157222;23;20084;-74
2022/07/18 07:00:13;;;;;;;21.35;10.60;;;;;;;32.47;28.11;102221.28;6156894;23;20012;-77
2022/07/18 07:02:40;;;;;;;26.83;10.75;;;;;;;32.93;27.31;102225.69;6156471;23;20014;-76
2022/07/18 07:05:06;;;;;;;15.63;9.20;;;;;;;33.09;26.62;102224.41;6157010;23;20374;-78
2022/07/18 07:07:31;;;;;;;20.60;9.50;;;;;;;33.34;27.29;102211.13;6156469;23;20040;-79
2022/07/18 07:09:57;;;;;;;21.42;10.70;;;;;;;33.51;25.75;102225.66;6157746;23;20005;-80
2022/07/18 07:12:22;;;;;;;17.55;8.85;;;;;;;33.64;26.42;102225.59;6157210;23;20001;-80
2022/07/18 07:14:47;;;;;;;15.23;9.20;;;;;;;33.59;26.42;102222.75;6157027;23;20006;-75
2022/07/18 07:17:13;;;;;;;16.23;9.38;;;;;;;33.58;26.86;102231.00;6156302;23;20006;-75
2022/07/18 07:19:38;;;;;;;19.60;10.25;;;;;;;33.52;26.32;102218.44;6157187;23;20039;-75
2022/07/18 07:22:03;;;;;;;18.35;9.65;;;;;;;33.60;27.11;102234.28;6156463;23;20009;-78
2022/07/18 07:24:29;;;;;;;18.52;9.85;;;;;;;33.69;26.39;102232.97;6156582;23;20009;-80
2022/07/18 07:26:54;;;;;;;20.10;10.07;;;;;;;33.92;26.10;102222.56;6156402;23;20085;-73
2022/07/18 07:29:20;;;;;;;23.90;9.05;;;;;;;34.01;26.32;102219.56;6156607;23;20044;-76
2022/07/18 07:31:45;;;;;;;19.35;9.18;;;;;;;34.40;26.56;102221.94;6156017;23;20006;-77
2022/07/18 07:34:10;;;;;;;18.33;8.80;;;;;;;34.83;25.76;102215.72;6156125;23;20006;-74
2022/07/18 07:36:36;;;;;;;17.63;9.50;;;;;;;34.69;24.84;102216.88;6156440;23;20012;-70
2022/07/18 07:39:02;;;;;;;17.88;9.75;;;;;;;34.82;25.25;102224.81;6130587;23;20088;-73
2022/07/18 07:41:27;;;;;;;20.33;9.60;;;;;;;33.87;26.53;102224.19;6155929;23;20001;-70
2022/07/18 07:43:52;;;;;;;20.15;8.68;;;;;;;32.45;28.84;102222.53;6155945;23;20006;-71
2022/07/18 07:46:18;;;;;;;22.30;9.95;;;;;;;30.94;30.76;102218.44;6155786;23;20013;-73
2022/07/18 07:48:43;;;;;;;16.27;8.82;;;;;;;29.79;32.64;102222.25;6156075;23;20390;-73
2022/07/18 07:51:09;;;;;;;15.73;9.27;;;;;;;28.63;34.50;102199.09;6156186;23;20017;-76
2022/07/18 07:53:35;;;;;;;19.75;9.90;;;;;;;28.09;35.77;102217.00;6156331;23;20084;-71
2022/07/18 07:56:00;;;;;;;19.23;9.70;;;;;;;27.47;36.78;102209.91;6155952;23;20088;-72
2022/07/18 07:58:25;;;;;;;18.25;9.38;;;;;;;26.98;37.53;102204.81;6155877;23;20005;-76
2022/07/18 08:00:51;;;;;;;16.10;9.20;;;;;;;26.62;38.10;102206.22;6153732;23;20017;-72
2022/07/18 08:03:16;;;;;;;21.23;9.00;;;;;;;26.30;37.84;102194.63;6156133;23;20077;-70
2022/07/18 08:05:48;;;;;;;14.80;7.97;;;;;;;26.03;37.93;102188.69;6155885;23;20470;-71
2022/07/18 08:08:14;;;;;;;17.38;8.18;;;;;;;25.72;40.14;102177.91;6155759;23;20013;-73
2022/07/18 08:10:40;;;;;;;15.32;7.60;;;;;;;25.69;40.77;102180.84;6156009;23;20435;-72
2022/07/18 08:13:06;;;;;;;16.75;7.07;;;;;;;25.58;39.78;102175.06;6155778;23;20048;-76
2022/07/18 08:15:32;;;;;;;15.95;6.32;;;;;;;25.55;38.77;102183.28;6155996;23;20104;-77
2022/07/18 08:17:57;;;;;;;11.63;5.75;;;;;;;25.52;39.47;102186.28;6155992;23;20435;-78
2022/07/18 08:20:23;;;;;;;18.33;5.60;;;;;;;25.49;39.19;102176.03;6153102;23;20029;-75
2022/07/18 08:23:06;;;;;;;16.00;5.75;;;;;;;25.51;40.19;102177.50;6155996;23;20009;-72
2022/07/18 08:25:35;;;;;;;13.55;4.68;;;;;;;25.59;39.33;102171.41;6156050;23;20091;-71
2022/07/18 08:28:01;;;;;;;13.20;4.85;;;;;;;25.74;38.34;102196.25;6155949;23;20430;-76
2022/07/18 08:30:28;;;;;;;15.93;4.88;;;;;;;25.78;38.28;102200.25;6155945;23;20001;-77
2022/07/18 08:32:53;;;;;;;13.00;4.57;;;;;;;25.83;39.04;102202.41;6155806;23;20429;-71
2022/07/18 08:35:18;;;;;;;12.77;3.72;;;;;;;25.82;38.13;102204.22;6155637;23;20088;-71
2022/07/18 08:37:44;;;;;;;11.30;3.53;;;;;;;25.85;37.78;102203.06;6155754;23;20056;-77
2022/07/18 08:40:10;;;;;;;14.55;3.55;;;;;;;25.87;38.47;102207.22;6155666;23;20001;-73
2022/07/18 08:42:36;;;;;;;12.45;3.67;;;;;;;25.99;36.04;102195.31;6154548;23;20104;-71
2022/07/18 08:45:02;;;;;;;9.32;3.53;;;;;;;26.04;37.62;102200.09;6156202;23;20085;-72
2022/07/18 08:47:31;;;;;;;9.55;3.67;;;;;;;26.09;36.38;102199.63;6126979;23;20033;-77
2022/07/18 08:49:58;;;;;;;9.95;3.58;;;;;;;26.12;35.08;102191.34;6126048;23;20076;-70
2022/07/18 08:52:24;;;;;;;8.10;3.03;;;;;;;26.25;36.73;102189.00;6125960;23;20077;-72
2022/07/18 08:54:50;;;;;;;10.32;3.65;;;;;;;26.20;33.76;102194.81;6125244;23;20443;-72
2022/07/18 08:57:17;;;;;;;10.05;3.53;;;;;;;26.26;35.53;102202.09;6099984;23;20002;-71
2022/07/18 08:59:42;;;;;;;11.02;3.55;;;;;;;26.18;35.37;102182.75;6126068;23;20486;-70
2022/07/18 09:02:08;;;;;;;10.75;3.30;;;;;;;26.24;37.56;102166.16;6125775;23;20013;-73
2022/07/18 09:04:36;;;;;;;12.10;3.45;;;;;;;26.54;35.74;102194.63;6125531;23;20002;-69
2022/07/18 09:07:03;;;;;;;8.90;3.40;;;;;;;26.56;36.73;102197.97;6126295;23;20113;-68
2022/07/18 09:09:29;;;;;;;10.85;3.25;;;;;;;26.52;36.49;102183.38;6125659;23;20081;-70
2022/07/18 09:11:58;;;;;;;8.60;2.90;;;;;;;26.63;36.74;102192.78;6125979;23;20065;-75
2022/07/18 09:14:29;;;;;;;11.07;3.53;;;;;;;26.65;35.49;102190.00;6126013;23;20006;-71
2022/07/18 09:17:08;;;;;;;8.50;2.70;;;;;;;26.69;34.35;102192.13;6099657;23;20431;-70
2022/07/18 09:19:34;;;;;;;9.15;2.95;;;;;;;26.69;33.91;102181.53;6125634;23;20009;-70
2022/07/18 09:22:14;;;;;;;8.45;2.80;;;;;;;26.81;35.17;102174.03;6125710;23;20006;-70
2022/07/18 09:25:03;;;;;;;5.25;2.90;;;;;;;26.97;33.60;102186.41;6126252;23;20092;-71
2022/07/18 09:27:37;;;;;;;8.90;3.13;;;;;;;26.96;34.00;102177.63;6088055;23;20010;-71
2022/07/18 09:30:09;;;;;;;8.82;2.95;;;;;;;27.02;32.81;102192.88;6125900;23;20020;-72
2022/07/18 09:32:36;;;;;;;11.93;3.70;;;;;;;27.00;34.45;102186.88;6125728;23;20088;-75
2022/07/18 09:35:09;;;;;;;6.72;3.05;;;;;;;26.99;34.34;102168.50;6125438;23;20032;-77
2022/07/18 09:37:34;;;;;;;7.82;3.05;;;;;;;27.15;33.45;102189.69;6125446;23;20495;-74
2022/07/18 09:40:27;;;;;;;8.93;3.00;;;;;;;27.24;34.00;102190.47;6125622;23;20006;-76
2022/07/18 09:42:54;;;;;;;11.25;3.25;;;;;;;27.15;32.94;102189.69;6125784;23;20336;-76
2022/07/18 09:45:29;;;;;;;12.00;3.10;;;;;;;27.28;34.85;102189.94;6129451;23;20001;-74
2022/07/18 09:47:57;;;;;;;10.50;2.90;;;;;;;27.29;34.64;102182.81;6154997;23;20372;-76
2022/07/18 09:50:26;;;;;;;11.18;3.17;;;;;;;27.15;32.75;102171.94;6155116;23;20080;-78
2022/07/18 09:53:26;;;;;;;9.05;2.90;;;;;;;27.41;35.10;102189.38;6154821;23;20449;-76
2022/07/18 09:55:56;;;;;;;8.48;3.05;;;;;;;27.33;35.86;102166.38;6144653;23;20009;-81
2022/07/18 09:58:24;;;;;;;11.93;3.35;;;;;;;27.51;35.23;102183.84;6155016;23;20005;-75
2022/07/18 10:00:50;;;;;;;8.10;2.92;;;;;;;27.48;33.70;102165.63;6154861;23;20080;-78
2022/07/18 10:03:17;;;;;;;11.35;2.97;;;;;;;27.55;36.02;102172.72;6154647;23;20040;-77
2022/07/18 10:05:45;;;;;;;8.63;2.95;;;;;;;27.54;33.56;102181.69;6154613;23;20009;-72
2022/07/18 10:08:15;;;;;;;12.00;2.80;;;;;;;27.80;34.99;102184.00;6155052;23;20006;-73
2022/07/18 10:10:43;;;;;;;13.82;3.40;;;;;;;27.78;34.09;102172.75;6155174;23;20028;-77
2022/07/18 10:13:08;;;;;;;8.93;2.88;;;;;;;27.83;32.88;102188.16;6155129;23;20006;-74
2022/07/18 10:15:37;;;;;;;8.57;3.30;;;;;;;27.80;33.43;102178.69;6155257;23;20032;-80
2022/07/18 10:18:06;;;;;;;11.05;3.38;;;;;;;28.05;35.29;102179.34;6154858;23;20017;-78
2022/07/18 10:20:41;;;;;;;8.02;3.35;;;;;;;28.16;34.28;102176.25;6154660;23;20387;-80
2022/07/18 10:23:48;;;;;;;9.35;3.00;;;;;;;28.21;34.05;102184.50;6154698;23;20005;-73
2022/07/18 10:26:19;;;;;;;9.75;3.42;;;;;;;28.06;32.31;102161.59;6153936;23;20378;-79
2022/07/18 10:28:59;;;;;;;7.03;2.95;;;;;;;28.20;33.66;102182.84;6155077;23;20327;-78
2022/07/18 10:31:57;;;;;;;11.18;3.20;;;;;;;28.39;34.59;102183.38;6154912;23;20005;-74
2022/07/18 10:34:30;;;;;;;8.50;3.08;;;;;;;28.48;33.78;102182.28;6154643;23;20009;-71
2022/07/18 10:37:00;;;;;;;11.27;3.22;;;;;;;28.52;33.16;102178.28;6155102;23;20001;-74
2022/07/18 10:39:51;;;;;;;14.10;3.83;;;;;;;28.49;33.25;102176.78;6154809;23;20005;-78
2022/07/18 10:42:20;;;;;;;10.35;3.17;;;;;;;28.46;33.78;102171.03;6035841;23;20018;-78
2022/07/18 10:44:46;;;;;;;9.10;3.65;;;;;;;28.46;33.41;102166.53;6024219;23;20054;-76
2022/07/18 10:47:20;;;;;;;11.30;3.92;;;;;;;28.53;33.69;102177.28;6037119;23;20023;-75
2022/07/18 10:49:52;;;;;;;13.63;3.60;;;;;;;28.65;35.06;102178.47;6012457;23;20556;-77
2022/07/18 10:52:29;;;;;;;10.73;3.35;;;;;;;28.68;34.24;102163.97;6035897;23;20412;-78
2022/07/18 10:55:03;;;;;;;7.88;3.22;;;;;;;28.70;33.81;102175.25;6036409;23;20070;-77
2022/07/18 10:57:29;;;;;;;10.02;3.60;;;;;;;28.77;34.78;102161.03;6036175;23;20015;-80
2022/07/18 11:00:07;;;;;;;11.48;3.55;;;;;;;28.88;34.28;102169.56;6035984;23;20366;-80
2022/07/18 11:02:36;;;;;;;8.77;2.92;;;;;;;28.84;33.47;102164.63;6035906;23;20433;-77
2022/07/18 11:05:03;;;;;;;8.13;3.42;;;;;;;28.79;32.67;102161.66;6035752;23;20313;-77
2022/07/18 11:07:29;;;;;;;10.02;3.40;;;;;;;28.90;34.64;102159.59;6035817;23;20055;-75
2022/07/18 11:09:54;;;;;;;9.43;3.38;;;;;;;28.92;34.62;102160.25;6035976;23;20007;-76
2022/07/18 11:12:21;;;;;;;8.30;3.40;;;;;;;28.83;33.26;102159.50;6035883;23;20063;-79
2022/07/18 11:15:07;;;;;;;12.32;3.30;;;;;;;28.94;34.66;102160.88;6035634;23;20031;-73
2022/07/18 11:18:03;;;;;;;8.63;3.42;;;;;;;28.94;34.66;102160.88;6036051;23;20428;-72
2022/07/18 11:20:49;;;;;;;8.63;3.28;;;;;;;28.99;34.09;102148.66;6066172;23;20053;-74